sensor_id;sensor_type;location;lat;lon;timestamp;P1;durP1;ratioP1;P2;durP2;ratioP2
16760;SDS011;8498;52.516;13.790;2024-01-15T00:03:07;13.53;;;6.50;;
16760;SDS011;8498;52.516;13.790;2024-01-15T00:08:29;13.97;;;6.47;;
16760;SDS011;8498;52.516;13.790;2024-01-15T00:13:52;12.43;;;5.77;;
16760;SDS011;8498;52.516;13.790;2024-01-15T00:19:14;14.83;;;7.10;;
16760;SDS011;8498;52.516;13.790;2024-01-15T00:24:37;15.83;;;7.07;;
16760;SDS011;8498;52.516;13.790;2024-01-15T00:29:59;12.60;;;6.07;;
16760;SDS011;8498;52.516;13.790;2024-01-15T00:35:21;15.87;;;7.20;;
16760;SDS011;8498;52.516;13.790;2024-01-15T00:40:44;14.60;;;6.77;;
16760;SDS011;8498;52.516;13.790;2024-01-15T00:46:06;15.17;;;5.80;;
16760;SDS011;8498;52.516;13.790;2024-01-15T00:51:28;12.33;;;6.00;;
16760;SDS011;8498;52.516;13.790;2024-01-15T00:56:51;9.73;;;5.60;;
16760;SDS011;8498;52.516;13.790;2024-01-15T01:02:13;13.63;;;6.07;;
16760;SDS011;8498;52.516;13.790;2024-01-15T01:07:35;12.30;;;5.87;;
16760;SDS011;8498;52.516;13.790;2024-01-15T01:12:58;15.17;;;6.37;;
16760;SDS011;8498;52.516;13.790;2024-01-15T01:18:20;16.00;;;6.00;;
16760;SDS011;8498;52.516;13.790;2024-01-15T01:23:43;10.97;;;5.93;;
16760;SDS011;8498;52.516;13.790;2024-01-15T01:29:06;15.00;;;6.57;;
16760;SDS011;8498;52.516;13.790;2024-01-15T01:34:28;11.43;;;5.60;;
16760;SDS011;8498;52.516;13.790;2024-01-15T01:39:55;13.60;;;5.83;;
16760;SDS011;8498;52.516;13.790;2024-01-15T01:45:17;15.13;;;6.37;;
16760;SDS011;8498;52.516;13.790;2024-01-15T01:50:40;13.77;;;6.20;;
16760;SDS011;8498;52.516;13.790;2024-01-15T01:56:03;11.17;;;5.43;;
16760;SDS011;8498;52.516;13.790;2024-01-15T02:01:26;13.60;;;5.90;;
16760;SDS011;8498;52.516;13.790;2024-01-15T02:06:48;11.80;;;5.47;;
16760;SDS011;8498;52.516;13.790;2024-01-15T02:12:11;12.57;;;5.80;;
16760;SDS011;8498;52.516;13.790;2024-01-15T02:17:34;15.90;;;5.63;;
16760;SDS011;8498;52.516;13.790;2024-01-15T02:23:09;16.30;;;6.40;;
16760;SDS011;8498;52.516;13.790;2024-01-15T02:28:33;11.13;;;5.50;;
16760;SDS011;8498;52.516;13.790;2024-01-15T02:33:56;15.40;;;6.30;;
16760;SDS011;8498;52.516;13.790;2024-01-15T02:39:18;16.20;;;6.73;;
16760;SDS011;8498;52.516;13.790;2024-01-15T02:44:41;15.27;;;5.90;;
16760;SDS011;8498;52.516;13.790;2024-01-15T02:50:03;12.77;;;5.67;;
16760;SDS011;8498;52.516;13.790;2024-01-15T02:55:26;13.67;;;5.73;;
16760;SDS011;8498;52.516;13.790;2024-01-15T03:00:51;14.00;;;5.13;;
16760;SDS011;8498;52.516;13.790;2024-01-15T03:06:13;10.43;;;5.03;;
16760;SDS011;8498;52.516;13.790;2024-01-15T03:11:37;17.57;;;5.10;;
16760;SDS011;8498;52.516;13.790;2024-01-15T03:17:02;8.63;;;4.17;;
16760;SDS011;8498;52.516;13.790;2024-01-15T03:22:24;12.67;;;4.60;;
16760;SDS011;8498;52.516;13.790;2024-01-15T03:27:46;9.17;;;4.40;;
16760;SDS011;8498;52.516;13.790;2024-01-15T03:33:09;13.07;;;5.00;;
16760;SDS011;8498;52.516;13.790;2024-01-15T03:38:31;10.77;;;5.37;;
16760;SDS011;8498;52.516;13.790;2024-01-15T03:43:53;7.67;;;4.07;;
16760;SDS011;8498;52.516;13.790;2024-01-15T03:49:16;6.80;;;3.90;;
16760;SDS011;8498;52.516;13.790;2024-01-15T03:54:38;16.83;;;4.23;;
16760;SDS011;8498;52.516;13.790;2024-01-15T04:00:00;14.43;;;5.20;;
16760;SDS011;8498;52.516;13.790;2024-01-15T04:05:26;9.73;;;4.73;;
16760;SDS011;8498;52.516;13.790;2024-01-15T04:10:48;12.57;;;4.70;;
16760;SDS011;8498;52.516;13.790;2024-01-15T04:16:11;8.57;;;4.30;;
16760;SDS011;8498;52.516;13.790;2024-01-15T04:21:33;14.57;;;4.13;;
16760;SDS011;8498;52.516;13.790;2024-01-15T04:26:55;10.43;;;3.97;;
16760;SDS011;8498;52.516;13.790;2024-01-15T04:32:18;5.70;;;3.47;;
16760;SDS011;8498;52.516;13.790;2024-01-15T04:37:42;9.60;;;3.77;;
16760;SDS011;8498;52.516;13.790;2024-01-15T04:43:05;7.50;;;3.43;;
16760;SDS011;8498;52.516;13.790;2024-01-15T04:48:27;5.97;;;3.50;;
16760;SDS011;8498;52.516;13.790;2024-01-15T04:53:50;7.27;;;3.83;;
16760;SDS011;8498;52.516;13.790;2024-01-15T04:59:13;12.47;;;3.80;;
16760;SDS011;8498;52.516;13.790;2024-01-15T05:04:36;6.07;;;2.87;;
16760;SDS011;8498;52.516;13.790;2024-01-15T05:09:59;10.30;;;2.50;;
16760;SDS011;8498;52.516;13.790;2024-01-15T05:15:22;4.90;;;2.43;;
16760;SDS011;8498;52.516;13.790;2024-01-15T05:20:44;4.00;;;2.00;;
16760;SDS011;8498;52.516;13.790;2024-01-15T05:26:07;9.83;;;2.70;;
16760;SDS011;8498;52.516;13.790;2024-01-15T05:31:30;15.33;;;2.53;;
16760;SDS011;8498;52.516;13.790;2024-01-15T05:36:53;5.30;;;2.50;;
16760;SDS011;8498;52.516;13.790;2024-01-15T05:42:18;7.20;;;2.93;;
16760;SDS011;8498;52.516;13.790;2024-01-15T05:47:40;3.83;;;2.13;;
16760;SDS011;8498;52.516;13.790;2024-01-15T05:53:03;3.73;;;2.10;;
16760;SDS011;8498;52.516;13.790;2024-01-15T05:58:28;9.03;;;2.63;;
16760;SDS011;8498;52.516;13.790;2024-01-15T06:03:50;8.73;;;2.80;;
16760;SDS011;8498;52.516;13.790;2024-01-15T06:09:13;3.27;;;1.73;;
16760;SDS011;8498;52.516;13.790;2024-01-15T06:14:35;3.90;;;2.13;;
16760;SDS011;8498;52.516;13.790;2024-01-15T06:19:58;4.80;;;2.77;;
16760;SDS011;8498;52.516;13.790;2024-01-15T06:25:20;6.20;;;2.63;;
16760;SDS011;8498;52.516;13.790;2024-01-15T06:30:43;8.23;;;3.10;;
16760;SDS011;8498;52.516;13.790;2024-01-15T06:36:06;6.20;;;2.57;;
16760;SDS011;8498;52.516;13.790;2024-01-15T06:41:29;4.87;;;3.00;;
16760;SDS011;8498;52.516;13.790;2024-01-15T06:46:51;6.20;;;2.60;;
16760;SDS011;8498;52.516;13.790;2024-01-15T06:52:19;6.17;;;2.00;;
16760;SDS011;8498;52.516;13.790;2024-01-15T06:57:41;5.30;;;2.00;;
16760;SDS011;8498;52.516;13.790;2024-01-15T07:03:05;5.63;;;2.13;;
16760;SDS011;8498;52.516;13.790;2024-01-15T07:08:27;5.37;;;1.93;;
16760;SDS011;8498;52.516;13.790;2024-01-15T07:13:49;5.77;;;1.80;;
16760;SDS011;8498;52.516;13.790;2024-01-15T07:19:11;6.53;;;1.90;;
16760;SDS011;8498;52.516;13.790;2024-01-15T07:24:34;8.40;;;1.97;;
16760;SDS011;8498;52.516;13.790;2024-01-15T07:29:57;6.70;;;1.50;;
16760;SDS011;8498;52.516;13.790;2024-01-15T07:35:23;5.80;;;1.80;;
16760;SDS011;8498;52.516;13.790;2024-01-15T07:40:45;11.80;;;2.63;;
16760;SDS011;8498;52.516;13.790;2024-01-15T07:46:11;5.63;;;1.70;;
16760;SDS011;8498;52.516;13.790;2024-01-15T07:51:34;7.53;;;1.80;;
16760;SDS011;8498;52.516;13.790;2024-01-15T07:56:59;9.50;;;1.93;;
16760;SDS011;8498;52.516;13.790;2024-01-15T08:02:22;5.77;;;1.73;;
16760;SDS011;8498;52.516;13.790;2024-01-15T08:07:45;5.33;;;1.90;;
16760;SDS011;8498;52.516;13.790;2024-01-15T08:13:07;9.73;;;1.80;;
16760;SDS011;8498;52.516;13.790;2024-01-15T08:18:31;8.50;;;1.87;;
16760;SDS011;8498;52.516;13.790;2024-01-15T08:23:54;3.30;;;1.80;;
16760;SDS011;8498;52.516;13.790;2024-01-15T08:29:16;8.00;;;2.30;;
16760;SDS011;8498;52.516;13.790;2024-01-15T08:34:41;11.30;;;2.70;;
16760;SDS011;8498;52.516;13.790;2024-01-15T08:40:04;4.17;;;1.57;;
16760;SDS011;8498;52.516;13.790;2024-01-15T08:45:27;5.10;;;2.03;;
16760;SDS011;8498;52.516;13.790;2024-01-15T08:50:53;7.43;;;1.73;;
16760;SDS011;8498;52.516;13.790;2024-01-15T08:56:16;6.03;;;2.23;;
16760;SDS011;8498;52.516;13.790;2024-01-15T09:01:39;11.33;;;2.03;;
16760;SDS011;8498;52.516;13.790;2024-01-15T09:07:02;7.30;;;1.47;;
16760;SDS011;8498;52.516;13.790;2024-01-15T09:12:24;13.63;;;2.63;;
16760;SDS011;8498;52.516;13.790;2024-01-15T09:17:50;11.03;;;3.50;;
16760;SDS011;8498;52.516;13.790;2024-01-15T09:23:12;9.87;;;3.47;;
16760;SDS011;8498;52.516;13.790;2024-01-15T09:28:35;8.57;;;2.73;;
16760;SDS011;8498;52.516;13.790;2024-01-15T09:33:57;5.30;;;2.00;;
16760;SDS011;8498;52.516;13.790;2024-01-15T09:39:22;6.00;;;1.50;;
16760;SDS011;8498;52.516;13.790;2024-01-15T09:44:45;3.23;;;1.40;;
16760;SDS011;8498;52.516;13.790;2024-01-15T09:50:08;6.43;;;1.70;;
16760;SDS011;8498;52.516;13.790;2024-01-15T09:55:32;6.10;;;1.77;;
16760;SDS011;8498;52.516;13.790;2024-01-15T10:00:57;9.03;;;2.50;;
16760;SDS011;8498;52.516;13.790;2024-01-15T10:06:29;4.07;;;1.57;;
16760;SDS011;8498;52.516;13.790;2024-01-15T10:11:52;3.83;;;1.60;;
16760;SDS011;8498;52.516;13.790;2024-01-15T10:17:15;6.37;;;1.70;;
16760;SDS011;8498;52.516;13.790;2024-01-15T10:22:42;3.37;;;2.37;;
16760;SDS011;8498;52.516;13.790;2024-01-15T10:28:05;5.03;;;2.40;;
16760;SDS011;8498;52.516;13.790;2024-01-15T10:33:28;4.10;;;1.80;;
16760;SDS011;8498;52.516;13.790;2024-01-15T10:38:51;5.87;;;2.23;;
16760;SDS011;8498;52.516;13.790;2024-01-15T10:44:13;5.13;;;2.20;;
16760;SDS011;8498;52.516;13.790;2024-01-15T10:49:36;1.90;;;1.43;;
16760;SDS011;8498;52.516;13.790;2024-01-15T10:54:59;2.30;;;1.20;;
16760;SDS011;8498;52.516;13.790;2024-01-15T11:00:29;2.77;;;1.47;;
16760;SDS011;8498;52.516;13.790;2024-01-15T11:05:53;3.83;;;1.50;;
16760;SDS011;8498;52.516;13.790;2024-01-15T11:11:18;1.53;;;1.43;;
16760;SDS011;8498;52.516;13.790;2024-01-15T11:16:53;7.10;;;1.50;;
16760;SDS011;8498;52.516;13.790;2024-01-15T11:27:55;2.80;;;1.73;;
16760;SDS011;8498;52.516;13.790;2024-01-15T11:33:33;4.10;;;1.63;;
16760;SDS011;8498;52.516;13.790;2024-01-15T11:38:57;5.47;;;1.30;;
16760;SDS011;8498;52.516;13.790;2024-01-15T11:44:20;3.73;;;1.37;;
16760;SDS011;8498;52.516;13.790;2024-01-15T11:55:27;5.03;;;1.60;;
16760;SDS011;8498;52.516;13.790;2024-01-15T12:00:52;2.57;;;1.43;;
16760;SDS011;8498;52.516;13.790;2024-01-15T12:06:16;5.00;;;1.47;;
16760;SDS011;8498;52.516;13.790;2024-01-15T12:11:42;2.80;;;1.37;;
16760;SDS011;8498;52.516;13.790;2024-01-15T12:17:13;2.10;;;1.00;;
16760;SDS011;8498;52.516;13.790;2024-01-15T12:22:35;1.90;;;1.60;;
16760;SDS011;8498;52.516;13.790;2024-01-15T12:28:17;2.00;;;1.77;;
16760;SDS011;8498;52.516;13.790;2024-01-15T12:33:40;2.03;;;1.43;;
16760;SDS011;8498;52.516;13.790;2024-01-15T12:39:02;2.83;;;1.93;;
16760;SDS011;8498;52.516;13.790;2024-01-15T12:44:25;2.53;;;1.50;;
16760;SDS011;8498;52.516;13.790;2024-01-15T12:49:48;2.37;;;1.53;;
16760;SDS011;8498;52.516;13.790;2024-01-15T12:55:26;2.73;;;1.90;;
16760;SDS011;8498;52.516;13.790;2024-01-15T13:00:49;3.93;;;1.63;;
16760;SDS011;8498;52.516;13.790;2024-01-15T13:06:12;2.40;;;1.60;;
16760;SDS011;8498;52.516;13.790;2024-01-15T13:11:35;5.83;;;1.90;;
16760;SDS011;8498;52.516;13.790;2024-01-15T13:17:01;1.73;;;1.30;;
16760;SDS011;8498;52.516;13.790;2024-01-15T13:22:23;1.37;;;1.27;;
16760;SDS011;8498;52.516;13.790;2024-01-15T13:27:51;2.50;;;1.30;;
16760;SDS011;8498;52.516;13.790;2024-01-15T13:33:14;1.10;;;1.00;;
16760;SDS011;8498;52.516;13.790;2024-01-15T13:38:37;1.33;;;1.23;;
16760;SDS011;8498;52.516;13.790;2024-01-15T13:44:00;1.33;;;1.10;;
16760;SDS011;8498;52.516;13.790;2024-01-15T13:49:22;2.80;;;1.20;;
16760;SDS011;8498;52.516;13.790;2024-01-15T13:54:46;4.93;;;1.37;;
16760;SDS011;8498;52.516;13.790;2024-01-15T14:00:12;1.40;;;1.30;;
16760;SDS011;8498;52.516;13.790;2024-01-15T14:05:40;5.63;;;1.20;;
16760;SDS011;8498;52.516;13.790;2024-01-15T14:11:02;1.27;;;1.13;;
16760;SDS011;8498;52.516;13.790;2024-01-15T14:16:26;1.10;;;1.10;;
16760;SDS011;8498;52.516;13.790;2024-01-15T14:21:48;1.70;;;1.30;;
16760;SDS011;8498;52.516;13.790;2024-01-15T14:27:11;3.70;;;1.50;;
16760;SDS011;8498;52.516;13.790;2024-01-15T14:32:34;2.87;;;1.20;;
16760;SDS011;8498;52.516;13.790;2024-01-15T14:37:56;0.97;;;0.93;;
16760;SDS011;8498;52.516;13.790;2024-01-15T14:43:20;1.10;;;1.10;;
16760;SDS011;8498;52.516;13.790;2024-01-15T14:48:43;1.30;;;1.20;;
16760;SDS011;8498;52.516;13.790;2024-01-15T14:54:07;2.60;;;1.17;;
16760;SDS011;8498;52.516;13.790;2024-01-15T14:59:31;1.87;;;1.00;;
16760;SDS011;8498;52.516;13.790;2024-01-15T15:04:54;2.70;;;1.70;;
16760;SDS011;8498;52.516;13.790;2024-01-15T15:10:20;3.17;;;1.37;;
16760;SDS011;8498;52.516;13.790;2024-01-15T15:15:42;1.77;;;1.37;;
16760;SDS011;8498;52.516;13.790;2024-01-15T15:21:05;5.20;;;1.63;;
16760;SDS011;8498;52.516;13.790;2024-01-15T15:26:30;4.20;;;1.23;;
16760;SDS011;8498;52.516;13.790;2024-01-15T15:31:52;14.17;;;3.80;;
16760;SDS011;8498;52.516;13.790;2024-01-15T15:37:15;2.83;;;1.43;;
16760;SDS011;8498;52.516;13.790;2024-01-15T15:42:39;2.90;;;1.80;;
16760;SDS011;8498;52.516;13.790;2024-01-15T15:48:01;3.17;;;1.83;;
16760;SDS011;8498;52.516;13.790;2024-01-15T15:53:24;3.90;;;1.63;;
16760;SDS011;8498;52.516;13.790;2024-01-15T15:58:46;2.20;;;1.30;;
16760;SDS011;8498;52.516;13.790;2024-01-15T16:04:09;4.43;;;1.80;;
16760;SDS011;8498;52.516;13.790;2024-01-15T16:09:32;1.70;;;1.60;;
16760;SDS011;8498;52.516;13.790;2024-01-15T16:14:55;4.07;;;1.73;;
16760;SDS011;8498;52.516;13.790;2024-01-15T16:20:17;1.67;;;1.50;;
16760;SDS011;8498;52.516;13.790;2024-01-15T16:26:00;2.50;;;2.10;;
16760;SDS011;8498;52.516;13.790;2024-01-15T16:31:23;2.77;;;2.00;;
16760;SDS011;8498;52.516;13.790;2024-01-15T16:36:46;3.30;;;1.67;;
16760;SDS011;8498;52.516;13.790;2024-01-15T16:42:08;1.83;;;1.60;;
16760;SDS011;8498;52.516;13.790;2024-01-15T16:47:31;4.20;;;1.90;;
16760;SDS011;8498;52.516;13.790;2024-01-15T16:52:54;2.87;;;1.67;;
16760;SDS011;8498;52.516;13.790;2024-01-15T16:58:16;3.63;;;2.00;;
16760;SDS011;8498;52.516;13.790;2024-01-15T17:03:40;4.30;;;2.00;;
16760;SDS011;8498;52.516;13.790;2024-01-15T17:09:03;8.00;;;1.87;;
16760;SDS011;8498;52.516;13.790;2024-01-15T17:14:25;6.03;;;2.10;;
16760;SDS011;8498;52.516;13.790;2024-01-15T17:19:48;5.50;;;2.20;;
16760;SDS011;8498;52.516;13.790;2024-01-15T17:25:10;6.50;;;2.20;;
16760;SDS011;8498;52.516;13.790;2024-01-15T17:30:34;9.83;;;3.00;;
16760;SDS011;8498;52.516;13.790;2024-01-15T17:35:56;9.03;;;2.00;;
16760;SDS011;8498;52.516;13.790;2024-01-15T17:41:19;5.63;;;2.23;;
16760;SDS011;8498;52.516;13.790;2024-01-15T17:46:42;7.90;;;2.80;;
16760;SDS011;8498;52.516;13.790;2024-01-15T17:52:07;8.17;;;2.80;;
16760;SDS011;8498;52.516;13.790;2024-01-15T17:57:30;4.30;;;2.70;;
16760;SDS011;8498;52.516;13.790;2024-01-15T18:02:52;3.17;;;1.87;;
16760;SDS011;8498;52.516;13.790;2024-01-15T18:08:17;5.13;;;2.33;;
16760;SDS011;8498;52.516;13.790;2024-01-15T18:13:42;6.17;;;2.10;;
16760;SDS011;8498;52.516;13.790;2024-01-15T18:19:04;4.03;;;2.40;;
16760;SDS011;8498;52.516;13.790;2024-01-15T18:24:27;3.00;;;1.53;;
16760;SDS011;8498;52.516;13.790;2024-01-15T18:29:49;1.57;;;1.40;;
16760;SDS011;8498;52.516;13.790;2024-01-15T18:35:12;3.87;;;0.93;;
16760;SDS011;8498;52.516;13.790;2024-01-15T18:40:34;2.13;;;1.57;;
16760;SDS011;8498;52.516;13.790;2024-01-15T18:46:03;7.73;;;1.60;;
16760;SDS011;8498;52.516;13.790;2024-01-15T18:51:27;2.77;;;1.23;;
16760;SDS011;8498;52.516;13.790;2024-01-15T18:56:49;4.23;;;1.87;;
16760;SDS011;8498;52.516;13.790;2024-01-15T19:02:12;3.20;;;1.67;;
16760;SDS011;8498;52.516;13.790;2024-01-15T19:07:34;3.90;;;1.90;;
16760;SDS011;8498;52.516;13.790;2024-01-15T19:12:57;2.13;;;1.97;;
16760;SDS011;8498;52.516;13.790;2024-01-15T19:18:20;4.83;;;1.90;;
16760;SDS011;8498;52.516;13.790;2024-01-15T19:23:42;2.50;;;1.30;;
16760;SDS011;8498;52.516;13.790;2024-01-15T19:29:05;1.53;;;1.43;;
16760;SDS011;8498;52.516;13.790;2024-01-15T19:34:29;1.43;;;1.33;;
16760;SDS011;8498;52.516;13.790;2024-01-15T19:39:52;5.00;;;1.70;;
16760;SDS011;8498;52.516;13.790;2024-01-15T19:45:14;5.07;;;1.40;;
16760;SDS011;8498;52.516;13.790;2024-01-15T19:50:37;7.20;;;1.60;;
16760;SDS011;8498;52.516;13.790;2024-01-15T19:56:00;2.67;;;1.17;;
16760;SDS011;8498;52.516;13.790;2024-01-15T20:01:22;1.10;;;1.10;;
16760;SDS011;8498;52.516;13.790;2024-01-15T20:06:48;7.87;;;1.77;;
16760;SDS011;8498;52.516;13.790;2024-01-15T20:12:10;2.37;;;2.07;;
16760;SDS011;8498;52.516;13.790;2024-01-15T20:17:32;3.43;;;1.73;;
16760;SDS011;8498;52.516;13.790;2024-01-15T20:22:55;2.17;;;1.43;;
16760;SDS011;8498;52.516;13.790;2024-01-15T20:28:18;1.60;;;1.50;;
16760;SDS011;8498;52.516;13.790;2024-01-15T20:33:40;2.57;;;1.60;;
16760;SDS011;8498;52.516;13.790;2024-01-15T20:39:03;3.10;;;1.23;;
16760;SDS011;8498;52.516;13.790;2024-01-15T20:44:25;4.57;;;1.30;;
16760;SDS011;8498;52.516;13.790;2024-01-15T20:49:48;1.43;;;1.33;;
16760;SDS011;8498;52.516;13.790;2024-01-15T20:55:10;3.73;;;1.30;;
16760;SDS011;8498;52.516;13.790;2024-01-15T21:00:33;1.37;;;1.27;;
16760;SDS011;8498;52.516;13.790;2024-01-15T21:05:56;3.13;;;1.63;;
16760;SDS011;8498;52.516;13.790;2024-01-15T21:11:19;3.97;;;1.50;;
16760;SDS011;8498;52.516;13.790;2024-01-15T21:16:42;1.20;;;1.13;;
16760;SDS011;8498;52.516;13.790;2024-01-15T21:22:04;2.57;;;1.37;;
16760;SDS011;8498;52.516;13.790;2024-01-15T21:27:27;4.50;;;1.23;;
16760;SDS011;8498;52.516;13.790;2024-01-15T21:32:50;6.00;;;1.30;;
16760;SDS011;8498;52.516;13.790;2024-01-15T21:38:12;1.50;;;1.23;;
16760;SDS011;8498;52.516;13.790;2024-01-15T21:43:35;2.13;;;1.33;;
16760;SDS011;8498;52.516;13.790;2024-01-15T21:48:58;2.00;;;1.80;;
16760;SDS011;8498;52.516;13.790;2024-01-15T21:54:21;2.67;;;1.60;;
16760;SDS011;8498;52.516;13.790;2024-01-15T21:59:43;2.67;;;1.67;;
16760;SDS011;8498;52.516;13.790;2024-01-15T22:05:07;2.07;;;1.37;;
16760;SDS011;8498;52.516;13.790;2024-01-15T22:10:31;1.90;;;1.47;;
16760;SDS011;8498;52.516;13.790;2024-01-15T22:15:53;2.30;;;1.07;;
16760;SDS011;8498;52.516;13.790;2024-01-15T22:21:15;5.07;;;1.53;;
16760;SDS011;8498;52.516;13.790;2024-01-15T22:26:38;2.67;;;1.30;;
16760;SDS011;8498;52.516;13.790;2024-01-15T22:32:01;1.27;;;1.17;;
16760;SDS011;8498;52.516;13.790;2024-01-15T22:37:25;5.83;;;1.57;;
16760;SDS011;8498;52.516;13.790;2024-01-15T22:42:47;3.33;;;1.20;;
16760;SDS011;8498;52.516;13.790;2024-01-15T22:48:09;1.00;;;0.93;;
16760;SDS011;8498;52.516;13.790;2024-01-15T22:53:32;1.33;;;1.03;;
16760;SDS011;8498;52.516;13.790;2024-01-15T22:58:55;1.43;;;1.20;;
16760;SDS011;8498;52.516;13.790;2024-01-15T23:04:17;1.57;;;1.13;;
16760;SDS011;8498;52.516;13.790;2024-01-15T23:09:40;2.20;;;1.30;;
16760;SDS011;8498;52.516;13.790;2024-01-15T23:15:03;1.87;;;1.30;;
16760;SDS011;8498;52.516;13.790;2024-01-15T23:20:26;2.10;;;1.50;;
16760;SDS011;8498;52.516;13.790;2024-01-15T23:25:48;1.93;;;1.57;;
16760;SDS011;8498;52.516;13.790;2024-01-15T23:31:11;2.43;;;1.40;;
16760;SDS011;8498;52.516;13.790;2024-01-15T23:36:33;3.80;;;1.40;;
16760;SDS011;8498;52.516;13.790;2024-01-15T23:41:55;1.57;;;1.47;;
16760;SDS011;8498;52.516;13.790;2024-01-15T23:47:18;3.20;;;1.57;;
16760;SDS011;8498;52.516;13.790;2024-01-15T23:52:40;1.33;;;1.20;;
16760;SDS011;8498;52.516;13.790;2024-01-15T23:58:03;11.83;;;1.80;;
